Airfield :
LOGIN :

Register | Disclaimer

   EN    FR    IT 

 










Legend :    VFR   Marginal VFR   IFR   Intensive IFR   Very Intensive IFR
Visi :
Ceiling :
>= 8 km
>= 3000ft
5 to 8 km
1000 to 3000 ft
1500m to 5 km
500 to 1000 ft
800 to 1500m
200 to 500 ft
< 800m
< 200 ft
Symbols :   Thunderstorms  Fog  Heavy snow  Heavy precipitations  Wind > 20 kt
SIGMETs :     Misc.  Thunderstorms  Icing  Turbulence  Mountain Waves  Volcanic Ashes







- Airport Elevation : 353 ft
- IATA code : ZAG


LDZA - Zagreb Pleso

CURRENT METAR :
  • 221200Z 04014KT 010V070 9999 FEW010 OVC032 00/M01 Q1013 R05/////// NOSIG

EXPIRED METARs :
  • 221130Z 04015KT 9999 FEW010 OVC033 00/M01 Q1013 R05/////// NOSIG
  • 221100Z 04013KT 010V070 9999 FEW010 OVC033 M00/M01 Q1013 R05/69//94 NOSIG
  • 221030Z 04014KT 6000 -SN SCT006 BKN028 OVC047 M00/M01 Q1013 R05/69//94 NOSIG
  • 221000Z 04013KT 1500 -SN DRSN BKN005 OVC016 M00/M01 Q1013 RESN R05/69//94 BECMG 3000
  • 220930Z 03014KT 010V070 0700 R05/0750N R23/0800N SN DRSN OVC004 M01/M01 Q1013 RESN R05/69//94 NOSIG

TAF TAF LDZA
Valid from the 22 at 12:00 until the 23 at 12:00 UTC


221125Z 2212/2312 04015KT 8000 SCT010 OVC030 TX00/2212Z TNM01/2222Z
TEMPO 2212/2303 3000 -SN BKN005 OVC010
BECMG 2301/2303 1200 SN OVC005
PROB40
TEMPO 2303/2312 0600 +SN VV003
ATIS : +385 1 6-259-214
No reported NOTAMs for that airfield.
1 SIGMET reported for the Zagreb FIR (LDZO) :
 
Severe turbulence
LDZO SIGMET 7 VALID 221200/221500 LDZA
LDZO ZAGREB FIR SEV TURB FCST WI N4535 E01431 - N4436 E01553 - N4415 E01509 - N4527 E01339 - N4535 E01431 SFC/6000FT STNR NC=



MET'MAP, your aeronautical weather chart ! - Copyright ORBIFLY December 2007 - Disclaimer

ORBIFLY MET'MAP TEAM :

Programming & Development : Alexandra Zaïnal
Concept & Development : Baudouin d'Aumeries
Co-Development & Prog : Marc-Olivier Méhu
Technical & hardware support : Manuel Goepfert

Contact : metmap@orbifly.com




SOURCES & CREDITS :

   NOAA